Time;durP1;ratioP1;P1;durP2;ratioP2;P2;SDS_P1;SDS_P2;PMS_P1;PMS_P2;Temp;Humidity;BMP_temperature;BMP_pressure;BME280_temperature;BME280_humidity;BME280_pressure;Samples;Min_cycle;Max_cycle;Signal;HPM_P1;HPM_P2
2021/09/22 00:00:50;;;;;;;40.50;21.55;;;;;;;12.02;100.00;100878.91;4990447;28;20125;-64
2021/09/22 00:03:16;;;;;;;43.13;21.83;;;;;;;12.02;100.00;100884.31;4980959;28;20051;-64
2021/09/22 00:05:41;;;;;;;37.47;20.42;;;;;;;11.92;100.00;100882.09;4990658;28;20031;-63
2021/09/22 00:08:07;;;;;;;36.03;19.45;;;;;;;11.75;100.00;100884.56;4989238;28;20460;-63
2021/09/22 00:10:33;;;;;;;42.72;18.85;;;;;;;11.61;100.00;100887.38;4986676;28;20618;-63
2021/09/22 00:12:59;;;;;;;38.65;18.58;;;;;;;11.52;100.00;100886.81;4990567;28;20035;-64
2021/09/22 00:15:25;;;;;;;35.22;17.98;;;;;;;11.37;100.00;100880.94;4990013;28;20036;-64
2021/09/22 00:17:51;;;;;;;36.85;17.23;;;;;;;11.36;100.00;100880.09;4968928;28;20030;-63
2021/09/22 00:20:22;;;;;;;43.45;17.92;;;;;;;11.20;100.00;100873.38;4989870;28;20038;-63
2021/09/22 00:22:47;;;;;;;29.05;16.23;;;;;;;11.15;100.00;100880.47;4987906;28;20034;-63
2021/09/22 00:25:13;;;;;;;35.20;17.95;;;;;;;11.12;100.00;100876.34;4992487;28;20042;-64
2021/09/22 00:27:39;;;;;;;44.03;18.63;;;;;;;11.12;100.00;100868.25;4992392;28;20034;-63
2021/09/22 00:30:05;;;;;;;46.10;19.50;;;;;;;11.12;100.00;100871.75;4992014;28;20057;-63
2021/09/22 00:32:31;;;;;;;43.00;19.42;;;;;;;11.09;100.00;100869.50;4987951;28;20406;-63
2021/09/22 00:34:56;;;;;;;39.58;18.88;;;;;;;11.03;100.00;100864.16;4986687;28;20038;-64
2021/09/22 00:37:22;;;;;;;39.50;19.13;;;;;;;11.02;100.00;100866.03;4985148;28;20045;-63
2021/09/22 00:39:47;;;;;;;37.08;18.77;;;;;;;10.97;100.00;100871.25;4987258;28;20042;-63
2021/09/22 00:42:13;;;;;;;33.20;16.83;;;;;;;10.77;100.00;100872.19;4990683;28;20511;-63
2021/09/22 00:44:51;;;;;;;34.08;17.65;;;;;;;10.71;100.00;100870.38;4971436;28;20042;-63
2021/09/22 00:47:17;;;;;;;38.47;18.55;;;;;;;10.66;100.00;100870.19;4990460;28;20038;-63
2021/09/22 00:49:42;;;;;;;34.78;17.48;;;;;;;10.65;100.00;100866.69;4990699;28;20049;-64
2021/09/22 00:52:08;;;;;;;31.48;16.65;;;;;;;10.49;100.00;100857.22;4975339;28;20129;-63
2021/09/22 00:54:33;;;;;;;31.27;17.98;;;;;;;10.52;100.00;100853.25;4988090;28;20033;-63
2021/09/22 00:56:59;;;;;;;37.67;19.02;;;;;;;10.59;100.00;100850.53;4958945;28;20060;-63
2021/09/22 00:59:24;;;;;;;36.90;18.05;;;;;;;10.50;100.00;100852.63;4991163;28;20034;-63
2021/09/22 01:01:51;;;;;;;43.50;18.00;;;;;;;10.54;100.00;100845.78;4988844;28;20034;-63
2021/09/22 01:04:17;;;;;;;36.15;18.58;;;;;;;10.58;100.00;100851.56;4989395;28;20042;-63
2021/09/22 01:06:43;;;;;;;40.83;18.45;;;;;;;10.56;100.00;100845.56;4963203;28;20046;-63
2021/09/22 01:09:09;;;;;;;36.63;17.63;;;;;;;10.53;100.00;100852.22;4988120;28;20455;-63
2021/09/22 01:11:35;;;;;;;31.23;17.13;;;;;;;10.43;100.00;100851.84;4987703;28;20119;-63
2021/09/22 01:14:02;;;;;;;35.88;18.00;;;;;;;10.42;100.00;100844.81;4987815;28;20057;-63
2021/09/22 01:16:27;;;;;;;46.47;18.80;;;;;;;10.52;100.00;100839.78;4968361;28;20045;-63
2021/09/22 01:18:54;;;;;;;40.08;20.00;;;;;;;10.56;100.00;100843.69;4989480;28;20031;-64
2021/09/22 01:21:20;;;;;;;34.50;17.73;;;;;;;10.67;100.00;100845.72;4983033;28;20038;-63
2021/09/22 01:23:46;;;;;;;41.05;18.92;;;;;;;10.66;100.00;100835.16;4989284;28;20042;-63
2021/09/22 01:26:12;;;;;;;39.00;19.33;;;;;;;10.66;100.00;100838.69;4991364;28;20034;-63
2021/09/22 01:28:38;;;;;;;43.65;20.38;;;;;;;10.79;100.00;100828.88;4989145;28;20085;-63
2021/09/22 01:31:04;;;;;;;38.95;18.85;;;;;;;10.72;100.00;100830.78;4992003;28;20474;-63
2021/09/22 01:33:30;;;;;;;45.80;18.85;;;;;;;10.65;100.00;100831.66;4988213;28;20125;-63
2021/09/22 01:35:56;;;;;;;29.48;15.65;;;;;;;10.56;100.00;100821.34;4990095;28;20121;-63
2021/09/22 01:38:24;;;;;;;45.10;17.92;;;;;;;10.47;100.00;100826.97;4991478;28;20041;-63
2021/09/22 01:40:52;;;;;;;49.80;21.17;;;;;;;10.51;100.00;100824.66;4977364;28;20026;-64
2021/09/22 01:43:18;;;;;;;46.70;20.63;;;;;;;10.58;100.00;100819.25;4981017;28;20043;-63
2021/09/22 01:45:44;;;;;;;53.63;23.55;;;;;;;10.71;100.00;100816.47;4975469;28;20045;-63
2021/09/22 01:48:09;;;;;;;70.90;31.10;;;;;;;10.88;100.00;100821.34;4991119;28;20030;-63
2021/09/22 01:50:36;;;;;;;48.95;25.63;;;;;;;10.96;100.00;100815.69;4988936;28;20101;-63
2021/09/22 01:53:02;;;;;;;62.65;32.90;;;;;;;11.14;100.00;100817.63;4964362;28;20042;-63
2021/09/22 01:55:27;;;;;;;54.03;30.42;;;;;;;11.20;100.00;100816.75;4990108;28;20034;-63
2021/09/22 01:57:52;;;;;;;57.53;29.10;;;;;;;11.30;100.00;100810.03;4995393;28;20534;-64
2021/09/22 02:00:18;;;;;;;56.97;29.45;;;;;;;11.40;100.00;100819.25;4988039;28;20042;-63
2021/09/22 02:02:44;;;;;;;45.80;27.48;;;;;;;11.43;100.00;100812.59;4983099;28;23198;-64
2021/09/22 02:05:10;;;;;;;50.20;25.60;;;;;;;11.43;100.00;100807.22;4991280;28;20105;-64
2021/09/22 02:07:35;;;;;;;40.97;26.13;;;;;;;11.45;100.00;100801.59;4989300;28;20492;-64
2021/09/22 02:10:03;;;;;;;44.95;25.38;;;;;;;11.47;100.00;100803.03;4991446;28;20042;-64
2021/09/22 02:12:29;;;;;;;37.42;24.05;;;;;;;11.45;100.00;100807.81;4988391;28;20756;-64
2021/09/22 02:14:55;;;;;;;50.75;27.20;;;;;;;11.52;100.00;100810.47;4990299;28;20044;-64
2021/09/22 02:17:22;;;;;;;52.80;27.10;;;;;;;11.56;100.00;100808.97;4988043;28;20038;-64
2021/09/22 02:19:48;;;;;;;47.63;25.77;;;;;;;11.48;100.00;100812.78;4988849;28;20042;-64
2021/09/22 02:22:14;;;;;;;50.05;27.45;;;;;;;11.38;100.00;100809.75;4990281;28;20030;-64
2021/09/22 02:24:43;;;;;;;46.55;26.02;;;;;;;11.34;100.00;100814.75;4989127;28;20543;-63
2021/09/22 02:27:13;;;;;;;48.00;25.40;;;;;;;11.27;100.00;100816.69;4986220;28;20031;-64
2021/09/22 02:29:39;;;;;;;43.33;25.00;;;;;;;11.28;100.00;100821.03;4987197;28;20030;-64
2021/09/22 02:32:06;;;;;;;41.65;24.63;;;;;;;11.14;100.00;100806.84;4988480;28;20030;-64
2021/09/22 02:34:31;;;;;;;39.03;23.50;;;;;;;10.92;100.00;100807.22;4989034;28;20117;-64
2021/09/22 02:36:57;;;;;;;48.40;25.65;;;;;;;10.97;100.00;100806.56;4989591;28;20031;-64
2021/09/22 02:39:22;;;;;;;35.53;24.77;;;;;;;10.96;100.00;100797.66;4989733;28;20042;-64
2021/09/22 02:41:48;;;;;;;38.38;23.77;;;;;;;10.69;100.00;100797.00;4988144;28;20034;-64
2021/09/22 02:44:14;;;;;;;35.60;23.90;;;;;;;10.56;100.00;100797.91;4990531;28;20034;-64
2021/09/22 02:46:40;;;;;;;45.60;25.45;;;;;;;10.62;100.00;100791.69;4972978;28;20458;-64
2021/09/22 02:49:06;;;;;;;51.38;28.67;;;;;;;10.76;100.00;100780.81;4976327;28;20080;-64
2021/09/22 02:51:32;;;;;;;56.75;28.77;;;;;;;10.74;100.00;100772.94;4990018;28;20042;-64
2021/09/22 02:53:58;;;;;;;44.90;27.38;;;;;;;10.54;100.00;100770.34;4995563;28;20090;-64
2021/09/22 02:56:23;;;;;;;48.30;28.48;;;;;;;10.58;100.00;100771.56;4993069;28;20125;-64
2021/09/22 02:58:49;;;;;;;41.28;25.50;;;;;;;10.43;100.00;100771.88;4998153;28;20039;-64
2021/09/22 03:01:14;;;;;;;45.33;27.58;;;;;;;10.28;100.00;100779.41;4985366;28;20030;-65
2021/09/22 03:03:40;;;;;;;48.17;27.33;;;;;;;10.12;100.00;100770.78;4985427;28;20438;-64
2021/09/22 03:06:05;;;;;;;41.85;25.73;;;;;;;9.95;100.00;100767.72;4989679;28;20030;-65
2021/09/22 03:08:31;;;;;;;46.15;25.40;;;;;;;9.88;100.00;100761.53;4993579;28;20045;-64
2021/09/22 03:10:57;;;;;;;36.10;23.50;;;;;;;9.72;100.00;100760.97;4993156;28;20038;-63
2021/09/22 03:13:23;;;;;;;41.05;25.23;;;;;;;9.62;100.00;100763.28;4993454;28;20476;-63
2021/09/22 03:15:49;;;;;;;40.60;24.60;;;;;;;9.54;100.00;100761.63;4991304;28;20484;-63
2021/09/22 03:18:15;;;;;;;54.97;27.50;;;;;;;9.62;100.00;100756.03;4981221;28;20040;-63
2021/09/22 03:20:41;;;;;;;43.58;27.38;;;;;;;9.52;100.00;100748.41;4992916;28;20038;-63
2021/09/22 03:23:06;;;;;;;51.03;30.15;;;;;;;9.71;100.00;100745.03;4991349;28;20034;-63
2021/09/22 03:25:32;;;;;;;44.53;27.38;;;;;;;9.53;100.00;100741.16;4993759;28;20062;-63
2021/09/22 03:27:58;;;;;;;66.60;32.73;;;;;;;9.60;100.00;100738.47;4644476;28;10000772;-63
2021/09/22 03:30:24;;;;;;;44.63;26.88;;;;;;;9.64;100.00;100732.44;4990167;28;20491;-63
2021/09/22 03:32:50;;;;;;;59.75;30.77;;;;;;;9.67;100.00;100725.81;4993321;28;20516;-63
2021/09/22 03:35:15;;;;;;;69.68;33.05;;;;;;;9.81;100.00;100726.59;4991524;28;20031;-63
2021/09/22 03:37:41;;;;;;;58.45;28.55;;;;;;;9.72;100.00;100725.16;4992850;28;20045;-63
2021/09/22 03:40:07;;;;;;;43.10;24.38;;;;;;;9.61;100.00;100730.16;4990991;28;20076;-63
2021/09/22 03:42:33;;;;;;;50.53;27.00;;;;;;;9.74;100.00;100729.31;4992832;28;20049;-63
2021/09/22 03:44:58;;;;;;;47.33;26.88;;;;;;;9.70;100.00;100721.88;4992471;28;20035;-63
2021/09/22 03:47:24;;;;;;;53.53;28.52;;;;;;;9.76;100.00;100729.13;4986374;28;20066;-64
2021/09/22 03:49:50;;;;;;;58.38;28.92;;;;;;;9.70;100.00;100711.94;4993059;28;20088;-63
2021/09/22 03:52:15;;;;;;;52.15;27.10;;;;;;;9.69;100.00;100722.91;4993648;28;20065;-64
2021/09/22 03:54:41;;;;;;;59.97;30.45;;;;;;;9.74;100.00;100723.13;4992222;28;20022;-63
2021/09/22 03:57:06;;;;;;;70.75;31.73;;;;;;;9.89;100.00;100714.75;4983482;28;20039;-63
2021/09/22 03:59:32;;;;;;;49.45;27.33;;;;;;;9.84;100.00;100720.81;4989461;28;20026;-63
2021/09/22 04:01:57;;;;;;;57.50;27.30;;;;;;;9.73;100.00;100719.59;4982257;28;20061;-63
2021/09/22 04:04:23;;;;;;;71.45;32.28;;;;;;;10.02;100.00;100709.31;4983343;28;20034;-62
2021/09/22 04:06:48;;;;;;;53.22;28.70;;;;;;;10.04;100.00;100717.19;4992574;28;20061;-64
2021/09/22 04:09:15;;;;;;;50.40;25.40;;;;;;;10.11;100.00;100717.97;4993014;28;20026;-64
2021/09/22 04:11:41;;;;;;;47.03;24.52;;;;;;;10.19;100.00;100706.97;4972029;28;20396;-64
2021/09/22 04:14:07;;;;;;;45.10;23.67;;;;;;;10.31;100.00;100709.78;4993134;28;20045;-63
2021/09/22 04:16:32;;;;;;;43.45;21.90;;;;;;;10.22;100.00;100708.38;4988819;28;20046;-63
2021/09/22 04:18:58;;;;;;;37.35;19.00;;;;;;;10.15;100.00;100702.22;4992517;28;20122;-63
2021/09/22 04:21:24;;;;;;;34.95;19.35;;;;;;;10.16;100.00;100711.94;4986589;28;20085;-64
2021/09/22 04:23:49;;;;;;;38.67;20.42;;;;;;;10.30;100.00;100697.34;4992213;28;20065;-64
2021/09/22 04:26:15;;;;;;;32.90;17.95;;;;;;;10.16;100.00;100710.09;4989768;28;20058;-64
2021/09/22 04:28:41;;;;;;;41.75;19.95;;;;;;;10.16;100.00;100707.38;4989217;28;20050;-63
2021/09/22 04:31:07;;;;;;;42.17;20.10;;;;;;;10.30;100.00;100705.41;4990934;28;20038;-64
2021/09/22 04:33:33;;;;;;;47.25;20.83;;;;;;;10.48;100.00;100699.34;4991288;28;20090;-64
2021/09/22 04:35:58;;;;;;;31.45;17.15;;;;;;;10.38;100.00;100707.03;4992010;28;20038;-63
2021/09/22 04:38:24;;;;;;;33.95;18.17;;;;;;;10.48;100.00;100703.88;4987102;28;20771;-63
2021/09/22 04:40:50;;;;;;;37.00;16.73;;;;;;;10.44;100.00;100702.66;4988255;28;20030;-63
2021/09/22 04:43:16;;;;;;;30.98;16.95;;;;;;;10.40;100.00;100702.28;4985567;28;20069;-63
2021/09/22 04:45:45;;;;;;;35.35;16.02;;;;;;;10.29;100.00;100711.03;4979889;28;20487;-63
2021/09/22 04:48:11;;;;;;;31.90;17.40;;;;;;;10.35;100.00;100715.56;4987801;28;20023;-63
2021/09/22 04:50:38;;;;;;;31.58;17.30;;;;;;;10.31;100.00;100722.41;4989367;28;20069;-63
2021/09/22 04:53:05;;;;;;;40.13;17.92;;;;;;;10.47;100.00;100716.53;4979997;28;20071;-63
2021/09/22 04:55:30;;;;;;;27.60;15.50;;;;;;;10.43;100.00;100723.41;4987658;28;20153;-63
2021/09/22 04:57:56;;;;;;;29.27;16.40;;;;;;;10.29;100.00;100724.50;4990738;28;20138;-63
2021/09/22 05:00:22;;;;;;;34.13;18.02;;;;;;;10.24;100.00;100719.75;4990133;28;20122;-64
2021/09/22 05:02:47;;;;;;;38.28;19.33;;;;;;;10.13;100.00;100718.59;4975308;28;20038;-64
2021/09/22 05:05:13;;;;;;;40.00;18.92;;;;;;;10.07;100.00;100716.75;4991087;28;20108;-64
2021/09/22 05:07:39;;;;;;;31.80;17.80;;;;;;;9.98;100.00;100716.16;4987824;28;20627;-64
2021/09/22 05:10:06;;;;;;;34.42;18.65;;;;;;;9.87;100.00;100708.78;4986695;28;20031;-64
2021/09/22 05:12:32;;;;;;;38.38;21.13;;;;;;;9.88;100.00;100702.34;4986226;28;20051;-64
2021/09/22 05:14:58;;;;;;;35.25;19.25;;;;;;;9.72;100.00;100715.25;4985696;28;20026;-64
2021/09/22 05:17:24;;;;;;;37.35;19.67;;;;;;;9.67;100.00;100715.06;4988709;28;20035;-64
2021/09/22 05:19:50;;;;;;;32.25;17.65;;;;;;;9.56;100.00;100721.91;4989485;28;20093;-64
2021/09/22 05:22:16;;;;;;;42.90;20.63;;;;;;;9.47;100.00;100715.94;4988432;28;20034;-62
2021/09/22 05:24:42;;;;;;;28.20;17.60;;;;;;;9.41;100.00;100711.41;4986948;28;20042;-62
2021/09/22 05:27:08;;;;;;;34.42;20.15;;;;;;;9.40;100.00;100722.38;4987880;28;20042;-65
2021/09/22 05:29:36;;;;;;;45.72;25.85;;;;;;;9.46;100.00;100713.47;4989540;28;20038;-62
2021/09/22 05:32:02;;;;;;;39.20;22.20;;;;;;;9.45;100.00;100717.19;4980790;28;20101;-62
2021/09/22 05:34:28;;;;;;;45.53;23.70;;;;;;;9.50;100.00;100722.75;4990709;28;20083;-62
2021/09/22 05:36:54;;;;;;;44.05;23.45;;;;;;;9.36;100.00;100720.09;4989762;28;20113;-62
2021/09/22 05:39:20;;;;;;;51.47;24.42;;;;;;;9.34;100.00;100718.69;4990449;28;20034;-62
2021/09/22 05:41:45;;;;;;;47.00;24.83;;;;;;;9.21;100.00;100714.97;4978272;28;20050;-62
2021/09/22 05:44:11;;;;;;;37.78;22.75;;;;;;;9.34;100.00;100708.72;4987772;28;20041;-64
2021/09/22 05:46:37;;;;;;;44.10;22.52;;;;;;;9.19;100.00;100708.16;4983099;28;20036;-63
2021/09/22 05:49:03;;;;;;;45.95;23.70;;;;;;;9.38;100.00;100715.34;4983165;28;20046;-63
2021/09/22 05:51:29;;;;;;;47.85;23.60;;;;;;;9.29;100.00;100707.72;4985044;28;20670;-63
2021/09/22 05:53:55;;;;;;;50.25;25.80;;;;;;;9.36;100.00;100706.66;4989036;28;20042;-62
2021/09/22 05:56:21;;;;;;;43.25;22.33;;;;;;;9.26;100.00;100717.03;4972549;28;20030;-63
2021/09/22 05:58:47;;;;;;;43.38;23.23;;;;;;;9.28;100.00;100711.44;4989878;28;20034;-62
2021/09/22 06:01:12;;;;;;;50.70;24.50;;;;;;;9.51;100.00;100713.66;4985037;28;20077;-62
2021/09/22 06:03:38;;;;;;;45.63;23.05;;;;;;;9.54;100.00;100718.59;4990432;28;20046;-63
2021/09/22 06:06:03;;;;;;;63.72;28.15;;;;;;;9.78;100.00;100718.97;4985422;28;20038;-64
2021/09/22 06:08:29;;;;;;;66.43;29.30;;;;;;;9.87;100.00;100722.22;4989445;28;20132;-64
2021/09/22 06:10:55;;;;;;;52.80;26.30;;;;;;;9.77;100.00;100722.69;4981611;28;20046;-64
2021/09/22 06:13:21;;;;;;;60.38;30.33;;;;;;;9.74;100.00;100725.81;4981091;28;20041;-63
2021/09/22 06:15:46;;;;;;;60.25;30.02;;;;;;;9.66;100.00;100724.97;4987484;28;20153;-63
2021/09/22 06:18:12;;;;;;;68.22;35.80;;;;;;;9.64;100.00;100737.81;4981450;28;20042;-63
2021/09/22 06:20:37;;;;;;;83.35;45.22;;;;;;;9.72;100.00;100738.63;4987185;28;20117;-63
2021/09/22 06:23:03;;;;;;;102.28;53.10;;;;;;;9.79;100.00;100734.06;4986003;28;20399;-63
2021/09/22 06:25:29;;;;;;;78.45;40.88;;;;;;;9.84;100.00;100723.50;4979269;28;20034;-63
2021/09/22 06:27:55;;;;;;;54.75;31.38;;;;;;;9.83;100.00;100732.59;4982861;28;20387;-64
2021/09/22 06:30:21;;;;;;;60.00;31.08;;;;;;;9.96;100.00;100735.22;4985898;28;20105;-63
2021/09/22 06:32:46;;;;;;;54.58;27.92;;;;;;;10.02;100.00;100744.31;4985234;28;20053;-63
2021/09/22 06:35:12;;;;;;;51.28;27.90;;;;;;;10.08;100.00;100740.75;4984120;28;20042;-65
2021/09/22 06:37:38;;;;;;;46.80;29.63;;;;;;;10.25;100.00;100742.94;4987625;28;20045;-64
2021/09/22 06:40:05;;;;;;;48.35;30.05;;;;;;;10.32;100.00;100746.41;4984005;28;21211;-64
2021/09/22 06:42:31;;;;;;;54.28;34.35;;;;;;;10.52;100.00;100737.41;4987382;28;20113;-63
2021/09/22 06:44:57;;;;;;;55.75;32.50;;;;;;;10.68;100.00;100742.31;4990901;28;20546;-63
2021/09/22 06:47:23;;;;;;;47.42;30.30;;;;;;;10.73;100.00;100732.75;4988882;28;20197;-63
2021/09/22 06:49:49;;;;;;;50.97;29.90;;;;;;;10.84;100.00;100740.13;4985877;28;20113;-64
2021/09/22 06:52:15;;;;;;;50.83;29.52;;;;;;;11.02;100.00;100744.72;4992157;28;20133;-64
2021/09/22 06:54:41;;;;;;;49.72;29.90;;;;;;;11.10;100.00;100746.31;4987672;28;20034;-64
2021/09/22 06:57:07;;;;;;;50.95;27.85;;;;;;;11.20;100.00;100737.72;4643851;28;10000234;-64
2021/09/22 06:59:32;;;;;;;43.28;25.48;;;;;;;11.30;100.00;100748.81;4986338;28;20069;-63
2021/09/22 07:01:58;;;;;;;44.83;23.80;;;;;;;11.41;100.00;100739.97;4979605;28;20035;-64
2021/09/22 07:04:24;;;;;;;38.10;23.85;;;;;;;11.52;100.00;100745.72;4987695;28;20093;-64
2021/09/22 07:06:49;;;;;;;35.90;24.23;;;;;;;11.60;100.00;100748.13;4985440;28;20093;-64
2021/09/22 07:09:15;;;;;;;39.63;23.48;;;;;;;11.78;100.00;100744.56;4984039;28;20432;-64
2021/09/22 07:11:41;;;;;;;33.60;21.30;;;;;;;11.90;100.00;100747.34;4988399;28;20117;-64
2021/09/22 07:14:06;;;;;;;30.88;20.25;;;;;;;12.08;100.00;100740.31;4987781;28;20026;-63
2021/09/22 07:16:32;;;;;;;29.60;17.30;;;;;;;12.22;100.00;100741.78;4989372;28;20073;-64
2021/09/22 07:18:58;;;;;;;24.70;16.42;;;;;;;12.24;100.00;100742.38;4985601;28;20054;-63
2021/09/22 07:21:24;;;;;;;26.15;14.93;;;;;;;12.35;100.00;100743.44;4985546;28;20041;-64
2021/09/22 07:23:50;;;;;;;28.27;15.20;;;;;;;12.42;100.00;100746.06;4986454;28;20031;-64
2021/09/22 07:26:16;;;;;;;24.60;12.85;;;;;;;12.42;100.00;100746.06;4972693;28;20149;-64
2021/09/22 07:28:42;;;;;;;22.02;11.68;;;;;;;12.47;100.00;100748.91;4984398;28;20026;-64
2021/09/22 07:31:07;;;;;;;18.40;10.80;;;;;;;12.50;99.28;100750.34;4969785;28;20041;-64
2021/09/22 07:33:33;;;;;;;23.95;10.85;;;;;;;12.58;99.50;100745.41;4978237;28;20664;-64
2021/09/22 07:36:00;;;;;;;30.08;11.25;;;;;;;12.69;100.00;100743.81;4986756;28;20035;-64
2021/09/22 07:38:28;;;;;;;20.83;9.75;;;;;;;12.76;99.81;100745.56;4988633;28;20089;-63
2021/09/22 07:40:55;;;;;;;28.17;9.82;;;;;;;12.82;98.53;100741.94;4980873;28;20089;-64
2021/09/22 07:43:21;;;;;;;18.42;8.68;;;;;;;12.88;96.12;100739.13;4972538;28;20491;-64
2021/09/22 07:45:47;;;;;;;21.48;8.75;;;;;;;13.00;97.01;100738.31;4994160;28;20121;-64
2021/09/22 07:48:12;;;;;;;17.83;8.43;;;;;;;13.08;96.04;100735.25;4991261;28;20026;-64
2021/09/22 07:50:38;;;;;;;22.67;8.70;;;;;;;13.21;95.83;100733.34;4955244;28;20511;-64
2021/09/22 07:53:04;;;;;;;21.35;8.80;;;;;;;13.27;95.52;100738.66;4978783;28;20038;-65
2021/09/22 07:55:30;;;;;;;18.15;8.07;;;;;;;13.30;95.04;100731.97;4990234;28;20182;-65
2021/09/22 07:57:56;;;;;;;16.23;7.53;;;;;;;13.27;94.22;100737.84;4984270;28;20097;-64
2021/09/22 08:00:23;;;;;;;15.25;7.13;;;;;;;13.40;95.61;100736.78;4983954;28;20117;-64
2021/09/22 08:02:49;;;;;;;15.82;6.38;;;;;;;13.54;93.69;100731.97;4959696;28;20533;-64
2021/09/22 08:05:15;;;;;;;19.00;6.30;;;;;;;13.63;95.16;100740.53;4968443;28;20042;-64
2021/09/22 08:07:41;;;;;;;17.25;5.97;;;;;;;13.67;93.23;100742.53;4991356;28;20876;-64
2021/09/22 08:10:07;;;;;;;12.02;5.53;;;;;;;13.86;93.42;100748.59;4977644;28;20042;-64
2021/09/22 08:12:33;;;;;;;15.13;4.85;;;;;;;13.98;91.54;100734.19;4973077;28;20042;-65
2021/09/22 08:14:59;;;;;;;13.93;5.22;;;;;;;14.16;90.31;100736.75;4983522;28;20023;-64
2021/09/22 08:17:25;;;;;;;11.10;4.90;;;;;;;14.17;90.50;100734.84;4985296;28;20027;-64
2021/09/22 08:19:50;;;;;;;20.77;5.60;;;;;;;14.22;90.11;100731.44;4979060;28;20488;-64
2021/09/22 08:22:17;;;;;;;21.13;4.60;;;;;;;14.34;89.61;100726.78;4973548;28;20095;-64
2021/09/22 08:24:44;;;;;;;16.15;4.32;;;;;;;14.33;89.01;100733.25;4986773;28;20072;-64
2021/09/22 08:27:10;;;;;;;11.55;4.22;;;;;;;14.45;88.69;100727.75;4987927;28;20157;-64
2021/09/22 08:29:36;;;;;;;10.57;4.40;;;;;;;14.52;87.97;100724.91;4987537;28;20089;-64
2021/09/22 08:32:02;;;;;;;14.18;4.05;;;;;;;14.52;87.93;100724.91;4958487;28;20526;-64
2021/09/22 08:34:27;;;;;;;20.13;4.30;;;;;;;14.55;88.18;100725.22;4980223;28;20395;-64
2021/09/22 08:36:53;;;;;;;14.50;5.20;;;;;;;14.59;88.01;100725.56;4987591;28;20034;-64
2021/09/22 08:39:19;;;;;;;9.65;4.15;;;;;;;14.64;87.41;100726.47;4986024;28;20437;-64
2021/09/22 08:41:45;;;;;;;8.65;4.00;;;;;;;14.67;88.13;100719.75;4961819;28;20377;-64
2021/09/22 08:44:13;;;;;;;9.40;3.83;;;;;;;14.76;87.57;100723.72;4983363;28;20030;-64
2021/09/22 08:46:40;;;;;;;9.43;3.85;;;;;;;14.77;85.95;100717.22;4985116;28;20102;-64
2021/09/22 08:49:08;;;;;;;8.63;3.60;;;;;;;14.93;84.86;100723.69;4989170;28;20042;-64
2021/09/22 08:51:35;;;;;;;6.50;3.45;;;;;;;14.96;84.58;100714.25;4950601;28;20506;-63
2021/09/22 08:54:01;;;;;;;9.90;3.72;;;;;;;15.12;85.35;100711.78;4981738;28;20510;-64
2021/09/22 08:56:28;;;;;;;8.02;3.05;;;;;;;15.21;84.30;100702.97;4986160;28;20114;-65
2021/09/22 08:58:54;;;;;;;8.00;2.85;;;;;;;15.25;83.04;100705.97;4980932;28;20125;-66
2021/09/22 09:01:22;;;;;;;6.93;3.28;;;;;;;15.31;82.63;100707.69;4986130;28;20034;-65
2021/09/22 09:03:49;;;;;;;7.65;2.90;;;;;;;15.40;82.31;100709.97;4979984;28;20483;-64
2021/09/22 09:06:26;;;;;;;6.40;2.70;;;;;;;15.34;81.64;100706.38;4982313;28;20044;-64
2021/09/22 09:08:55;;;;;;;4.60;1.90;;;;;;;15.45;81.12;100720.91;4981012;28;20030;-65
2021/09/22 09:11:26;;;;;;;8.98;2.30;;;;;;;15.69;79.45;100715.22;4982928;28;20121;-65
2021/09/22 09:13:54;;;;;;;4.25;2.28;;;;;;;15.59;79.82;100722.16;4986278;28;20041;-66
2021/09/22 09:16:22;;;;;;;6.45;2.55;;;;;;;15.51;80.37;100720.72;4968600;28;20497;-66
2021/09/22 09:18:51;;;;;;;7.72;2.70;;;;;;;15.31;80.26;100723.19;4985890;28;20035;-65
2021/09/22 09:21:17;;;;;;;5.95;2.42;;;;;;;15.24;80.05;100725.25;4983927;28;20472;-65
2021/09/22 09:23:54;;;;;;;5.82;2.90;;;;;;;15.25;80.43;100718.75;4985013;28;20558;-65
2021/09/22 09:26:25;;;;;;;3.78;2.22;;;;;;;15.20;80.33;100711.34;4981250;28;20041;-65
2021/09/22 09:28:53;;;;;;;6.25;2.65;;;;;;;15.29;79.52;100706.31;4984084;28;20038;-65
2021/09/22 09:31:22;;;;;;;8.00;2.72;;;;;;;15.42;79.08;100703.25;4988523;28;20050;-64
2021/09/22 09:33:52;;;;;;;4.78;2.30;;;;;;;15.63;78.92;100717.88;4986567;28;20030;-65
2021/09/22 09:36:18;;;;;;;4.28;2.05;;;;;;;15.76;77.52;100718.56;4983350;28;20403;-65
2021/09/22 09:38:53;;;;;;;8.38;2.72;;;;;;;15.89;77.32;100725.56;4984899;28;20042;-65
2021/09/22 09:41:28;;;;;;;4.88;3.17;;;;;;;15.99;76.44;100739.25;4986042;28;20075;-65
2021/09/22 09:43:54;;;;;;;5.72;2.90;;;;;;;16.22;74.26;100731.88;4984878;28;20029;-65
2021/09/22 09:46:25;;;;;;;6.40;2.72;;;;;;;16.27;74.23;100723.78;4985456;28;20626;-65
2021/09/22 09:49:00;;;;;;;4.25;2.10;;;;;;;16.23;73.35;100730.81;4988424;28;20041;-65
2021/09/22 09:51:30;;;;;;;3.15;1.90;;;;;;;16.17;73.02;100723.69;4986434;28;20403;-65
2021/09/22 09:54:15;;;;;;;2.83;1.90;;;;;;;16.22;73.30;100716.41;4985819;28;20482;-65
2021/09/22 09:56:41;;;;;;;;;;;;;;;16.32;72.91;100712.97;4989024;28;20035;-65
2021/09/22 09:59:07;;;;;;;8.57;1.85;;;;;;;16.33;72.80;100717.31;4986758;28;19924;-65
2021/09/22 10:01:36;;;;;;;4.68;1.90;;;;;;;16.51;71.92;100715.31;4988503;28;20045;-65
2021/09/22 10:04:04;;;;;;;4.82;2.00;;;;;;;16.70;71.50;100718.47;4987497;28;20034;-65
2021/09/22 10:06:29;;;;;;;3.30;1.77;;;;;;;16.80;70.89;100713.09;4991696;28;20130;-65
2021/09/22 10:08:56;;;;;;;4.35;1.48;;;;;;;16.96;69.37;100714.06;4987838;28;20026;-65
2021/09/22 10:11:23;;;;;;;2.13;1.38;;;;;;;17.02;69.06;100703.22;4989247;28;20069;-65
2021/09/22 10:13:49;;;;;;;2.83;1.50;;;;;;;17.23;69.78;100709.59;4987771;28;20034;-65
2021/09/22 10:16:16;;;;;;;2.47;1.60;;;;;;;17.59;66.87;100717.13;4988027;28;20023;-64
2021/09/22 10:18:42;;;;;;;4.68;1.80;;;;;;;17.34;68.35;100703.13;4988616;28;20050;-65
2021/09/22 10:21:08;;;;;;;3.00;1.63;;;;;;;17.41;69.00;100713.78;4987255;28;20117;-65
2021/09/22 10:23:35;;;;;;;4.53;1.58;;;;;;;17.47;67.84;100706.44;4988810;28;20109;-65
2021/09/22 10:26:01;;;;;;;5.88;1.40;;;;;;;17.45;67.31;100698.56;4987208;28;20044;-64
2021/09/22 10:28:36;;;;;;;3.53;1.52;;;;;;;17.43;66.98;100706.19;4987292;28;20129;-64
2021/09/22 10:31:01;;;;;;;2.05;1.08;;;;;;;17.13;67.95;100707.66;4988269;28;20047;-64
2021/09/22 10:33:30;;;;;;;2.60;1.67;;;;;;;16.96;68.80;100705.06;4968834;28;20038;-64
2021/09/22 10:35:58;;;;;;;3.47;1.40;;;;;;;16.89;68.62;100705.28;4986116;28;20041;-65
2021/09/22 10:38:26;;;;;;;2.20;1.23;;;;;;;16.77;69.46;100699.19;4988758;28;20054;-64
2021/09/22 10:40:59;;;;;;;1.80;1.20;;;;;;;16.67;70.41;100699.94;4987981;28;20042;-65
2021/09/22 10:43:28;;;;;;;2.40;1.08;;;;;;;16.53;71.14;100703.09;4987802;28;20033;-65
2021/09/22 10:46:05;;;;;;;3.63;1.50;;;;;;;16.53;71.29;100697.66;4982948;28;20030;-65
2021/09/22 10:48:33;;;;;;;2.92;1.50;;;;;;;16.56;71.29;100690.06;4987912;28;20085;-65
2021/09/22 10:51:07;;;;;;;3.20;1.70;;;;;;;16.72;71.43;100699.16;4971039;28;20448;-65
2021/09/22 10:53:35;;;;;;;3.53;1.58;;;;;;;16.69;71.26;100687.72;4989732;28;20043;-65
2021/09/22 10:56:05;;;;;;;13.02;1.83;;;;;;;16.78;71.53;100687.22;4988186;28;20629;-65
2021/09/22 10:58:40;;;;;;;5.55;1.83;;;;;;;16.76;71.77;100690.22;4989250;28;20035;-65
2021/09/22 11:01:06;;;;;;;4.13;2.30;;;;;;;16.80;72.52;100693.25;4988043;28;20038;-65
2021/09/22 11:03:50;;;;;;;4.57;2.20;;;;;;;16.76;72.90;100684.78;4980498;28;20118;-65
2021/09/22 11:06:34;;;;;;;;;;;;;;;16.62;74.17;100681.66;4967756;28;20392;-65